• Join FlightAware (Why Join?)
  • Login
  • US Flag 
12:31AM EDT


 

Airport Tracker/Info


-or-


 

Live Flight TrackerFlight Track Log ✈ SKW6290 ✈ 20-Sep-2013 ✈ KPSP - KSFO

Flight Track Log - Related Links

Times and Time Zones

All times are in EDT time to prevent confusion due to time zone crossing. See the SKW6290 flight status page for this flight to view local times or setup timezone preferences in your user account.

Time Position Orientation Groundspeed Altitude Reporting Facility
EDT Latitude Longitude Course Direction KTS MPH feet Rate Location/Type
11:54PM 33.9783 -116.5486 355° North 235 270 7,600  Level Los Angeles Center
11:55PM 34.1092 -116.9073 342° North  Level Estimated
11:55PM 34.0503 -116.5319 11° North 258 297 9,500  Level Los Angeles Center
11:56PM 34.1788 -117.0079 270° West  Level Estimated
11:56PM 34.1350 -116.5331 359° North 307 353 11,400  Level Los Angeles Center
11:57PM 34.2484 -117.1086 281° West  Level Estimated
11:57PM 34.2192 -116.5664 342° North 315 362 13,200  Level Los Angeles Center
11:58PM 34.3517 -116.6175 342° North 351 404 15,000 1,440 Climbing Los Angeles Center
11:59PM 34.4525 -116.6581 342° North 373 429 16,200 1,200 Climbing Los Angeles Center
12:00AM 34.5053 -116.7581 303° West 376 433 17,500 1,260 Climbing Los Angeles Center
12:01AM 34.5181 -116.8803 277° West 366 421 18,800 1,020 Climbing Los Angeles Center
12:02AM 34.5317 -117.0058 278° West 372 428 19,600 540 Climbing Los Angeles Center
12:03AM 34.5458 -117.1350 278° West 384 442 20,000 600 Climbing Los Angeles Center
12:04AM 34.5594 -117.2678 277° West 393 452 20,900 960 Climbing Los Angeles Center
12:06AM 34.5714 -117.3992 276° West 393 452 22,300 1,260 Climbing Los Angeles Center
12:07AM 34.5842 -117.5519 276° West 385 443 23,800 1,260 Climbing Los Angeles Center
12:08AM 34.5969 -117.6772 277° West 376 433 24,900 1,080 Climbing Los Angeles Center
12:09AM 34.6106 -117.8297 276° West 378 435 26,000 480 Climbing Los Angeles Center
12:10AM 34.6194 -117.9331 276° West 388 447 26,000  Level Los Angeles Center
12:11AM 34.6517 -118.0944 284° West 431 496 26,000  Level Los Angeles Center
12:12AM 34.7086 -118.2219 299° West 433 498 26,000  Level Los Angeles Center
12:13AM 34.7650 -118.3489 298° West 429 494 26,000  Level Los Angeles Center
12:14AM 34.8272 -118.4853 299° West 428 493 26,000  Level Los Angeles Center
12:15AM 34.8839 -118.6047 300° West 415 478 26,000  Level Los Angeles Center
12:16AM 34.9347 -118.7225 298° West 419 482 26,000  Level Los Angeles Center
12:17AM 35.0017 -118.8719 299° West 421 484 26,000  Level Los Angeles Center
12:18AM 35.0581 -118.9992 298° West 424 488 26,000  Level Los Angeles Center
12:19AM 35.1150 -119.1247 299° West 425 489 26,000  Level Los Angeles Center
12:20AM 35.1692 -119.2550 297° West 428 493 26,000  Level Los Angeles Center
12:21AM 35.2258 -119.3831 298° West 428 493 26,000  Level Los Angeles Center
12:22AM 35.2833 -119.5122 299° West 431 496 26,000  Level Los Angeles Center
12:23AM 35.3403 -119.6436 298° West 435 501 26,000  Level Los Angeles Center
12:24AM 35.3950 -119.7692 298° West 424 488 26,000  Level Los Angeles Center
12:25AM 35.4600 -119.9194 298° West 419 482 26,000  Level Los Angeles Center
12:26AM 35.5144 -120.0467 298° West 423 487 26,000  Level Los Angeles Center
12:27AM 35.5686 -120.1725 298° West 423 487 26,000  Level Los Angeles Center
12:28AM 35.6228 -120.3011 297° West 424 488 26,000  Level Los Angeles Center
12:29AM 35.6764 -120.4264 298° West 427 491 26,000  Level Los Angeles Center
12:30AM 35.7294 -120.5525 297° West 422 486 26,000  Level Los Angeles Center
12:31AM 35.7939 -120.7053 298° West 422 486 26,000  Level Los Angeles Center
12:32AM 35.8469 -120.8336 297° West 422 486 26,000  Level Los Angeles Center
12:33AM 35.9003 -120.9611 297° West 420 483 26,000  Level Los Angeles Center
12:34AM 35.9539 -121.0886 297° West 421 484 26,000  Level Oakland Center
12:35AM 36.0178 -121.2425 297° West 420 483 26,000  Level Oakland Center
12:37AM 36.0719 -121.3708 298° West 421 484 26,000  Level Oakland Center
12:38AM 36.1681 -121.4619 323° Northwest 433 498 26,000  Level Oakland Center
12:39AM 36.2689 -121.5472 326° Northwest 438 504 26,000 -840 Level Oakland Center
12:40AM 36.3692 -121.6331 325° Northwest 437 503 24,400 -1,800 Descending Oakland Center
12:41AM 36.4650 -121.7175 325° Northwest 424 488 22,400 -1,260 Descending Oakland Center
12:42AM 36.5572 -121.7947 326° Northwest 405 466 21,900 -720 Descending Oakland Center
12:43AM 36.6494 -121.8797 324° Northwest 395 455 21,000 -840 Descending Oakland Center
12:44AM 36.7333 -121.9500 326° Northwest 376 433 20,300 -720 Descending Northern Cal TRACON
12:45AM 36.8333 -121.9833 345° North 357 411 19,700 -660 Descending Northern Cal TRACON
12:46AM 36.9167 -122.0167 342° North 329 379 19,000 -840 Descending Northern Cal TRACON
12:47AM 36.9500 -122.1167 293° West 312 359 18,100 -1,560 Descending Northern Cal TRACON
12:48AM 37.0000 -122.2167 302° West 313 360 15,800 -2,580 Descending Northern Cal TRACON
12:49AM 37.0833 -122.2000 North 346 398 12,700 -2,880 Descending Northern Cal TRACON
12:50AM 37.1825 -122.1603 18° North 325 374 9,900 -2,220 Descending Oakland Center
12:51AM 37.2614 -122.1344 15° North 299 344 8,100 -1,500 Descending Oakland Center
12:52AM 37.3297 -122.1094 16° North 261 300 6,900 -960 Descending Oakland Center
12:53AM 37.4000 -122.0833 16° North 236 272 6,200 -600 Descending Northern Cal TRACON
12:54AM 37.4500 -122.0833 360° North 203 234 5,800 -780 Descending Northern Cal TRACON
12:55AM 37.5000 -122.1167 332° Northwest 197 227 4,700 -1,140 Descending Northern Cal TRACON
12:56AM 37.5333 -122.1667 310° West 182 209 3,600 -1,200 Descending Northern Cal TRACON
12:57AM 37.5500 -122.2333 288° West 188 216 2,300 -1,140 Descending Northern Cal TRACON
12:58AM 37.5833 -122.2833 310° West 166 191 1,500 -900 Descending Northern Cal TRACON
12:59AM 37.6000 -122.3167 302° West 138 159 700 -600 Descending Northern Cal TRACON
01:00AM 37.6158 -122.3717 290° West 145 167 200 -420 Descending Oakland Center